Terminal Aerodrome Forecast
Issued by NWS Cleveland, OH

Home | Current Version | Previous Version | Text Only | Print | Product List | Glossary On
Versions: 1 2 3 4 5 6 7 8 9 10 11 12 13 14 15 16 17 18 19 20
000
FTUS41 KCLE 181422 AAA
TAFCAK
TAF AMD
KCAK 181422Z 1814/1912 27008KT 6SM BR SCT007 OVC010
      TEMPO 1814/1816 3SM -DZ BR BKN005 OVC015
     FM181600 27010KT 5SM BR OVC008
     FM182000 26008KT P6SM OVC009
     FM190100 24005KT P6SM OVC007=

USA.gov is the U.S. government's official web portal to all federal, state and local government web resources and services.